Flight Track Log - Related Links

Times and Time Zones

All times are in EDT time to prevent confusion due to time zone crossing. See the FFT268 flight status page for this flight to view local times or setup timezone preferences in your user account.

Time Position Orientation Groundspeed Altitude Reporting Facility
EDT Latitude Longitude Course Direction KTS MPH feet Rate Location/Type
Sat 10:17:01 AM 33.6500 -117.8833 90° East 133 153 1,600  Level Los Angeles Center
Sat 10:18:02 AM 33.6131 -117.8931 192° South 134 154 3,400 1,512 Climbing Los Angeles Center
Sat 10:19:04 AM 33.5619 -117.8917 179° South 180 207 4,700 1,561 Climbing Los Angeles Center
Sat 10:20:05 AM 33.5517 -117.8117 99° East 259 298 6,600 2,178 Climbing Los Angeles Center
Sat 10:21:19 AM 33.5614 -117.7142 83° East 289 333 9,600 2,444 Climbing Los Angeles Center
Sat 10:22:00 AM 33.5833 -117.3823 90° East  Level FlightAware Approximate
Sat 10:22:20 AM 33.5736 -117.5864 83° East 324 373 12,100  Level Los Angeles Center
Sat 10:23:22 AM 33.5858 -117.4456 84° East 354 407 14,900 2,419 Climbing Los Angeles Center
Sat 10:24:24 AM 33.5894 -117.3219 88° East 371 427 17,100 1,822 Climbing Los Angeles Center
Sat 10:25:37 AM 33.5939 -117.1925 88° East 387 445 19,000 1,956 Climbing Los Angeles Center
Sat 10:26:39 AM 33.5994 -117.0292 88° East 409 471 21,500 1,935 Climbing Los Angeles Center
Sat 10:27:41 AM 33.6053 -116.8894 87° East 417 480 23,000 1,024 Climbing Los Angeles Center
Sat 10:28:42 AM 33.6106 -116.7117 88° East 470 541 23,600 1,707 Climbing Los Angeles Center
Sat 10:29:44 AM 33.6356 -116.5611 79° East 461 531 26,500 2,098 Climbing Los Angeles Center
Sat 10:30:45 AM 33.7075 -116.4319 56° Northeast 464 534 27,900 1,268 Climbing Los Angeles Center
Sat 10:31:47 AM 33.7814 -116.2994 56° Northeast 474 545 29,100 1,065 Climbing Los Angeles Center
Sat 10:32:49 AM 33.8572 -116.1606 57° Northeast 490 564 30,100 1,073 Climbing Los Angeles Center
Sat 10:33:50 AM 33.9344 -116.0192 57° Northeast 503 579 31,300 1,180 Climbing Los Angeles Center
Sat 10:34:51 AM 33.9969 -115.9056 56° Northeast 506 582 32,500 1,317 Climbing Los Angeles Center
Sat 10:35:53 AM 34.0903 -115.7350 57° Northeast 507 583 34,000 1,500 Climbing Los Angeles Center
Sat 10:36:55 AM 34.1825 -115.5622 57° Northeast 509 586 35,600 1,220 Climbing Los Angeles Center
Sat 10:37:56 AM 34.2600 -115.4236 56° Northeast 503 579 36,500 976 Climbing Los Angeles Center
Sat 10:38:58 AM 34.3353 -115.2814 57° Northeast 502 578 37,600 878 Climbing Los Angeles Center
Sat 10:39:59 AM 34.4114 -115.1417 57° Northeast 499 574 38,300 634 Climbing Los Angeles Center
Sat 10:41:01 AM 34.4850 -114.9981 58° Northeast 500 575 38,900 341 Climbing Los Angeles Center
Sat 10:42:02 AM 34.5617 -114.8589 56° Northeast 498 573 39,000 44 Climbing Los Angeles Center
Sat 10:43:16 AM 34.6367 -114.7192 57° Northeast 495 570 39,000  Level Los Angeles Center
Sat 10:44:18 AM 34.7431 -114.5183 57° Northeast 502 578 39,000  Level Los Angeles Center
Sat 10:45:19 AM 34.8114 -114.3753 60° Northeast 496 571 39,000  Level Los Angeles Center
Sat 10:46:21 AM 34.8742 -114.2289 62° Northeast 491 565 39,000  Level Los Angeles Center
Sat 10:47:23 AM 34.9406 -114.0806 61° Northeast 496 571 39,000  Level Los Angeles Center
Sat 10:48:24 AM 35.0044 -113.9336 62° Northeast 494 568 39,000  Level Los Angeles Center
Sat 10:49:26 AM 35.0753 -113.7700 62° Northeast 493 567 39,000  Level Los Angeles Center
Sat 10:50:27 AM 35.1389 -113.6222 62° Northeast 494 568 39,000  Level Los Angeles Center
Sat 10:51:29 AM 35.2036 -113.4731 62° Northeast 497 572 39,000  Level Los Angeles Center
Sat 10:52:31 AM 35.2672 -113.3250 62° Northeast 495 570 39,000  Level Los Angeles Center
Sat 10:53:32 AM 35.3367 -113.1617 62° Northeast 494 568 39,000  Level Los Angeles Center
Sat 10:54:34 AM 35.4014 -113.0111 62° Northeast 498 573 39,000  Level Los Angeles Center
Sat 10:55:35 AM 35.4597 -112.8736 62° Northeast 503 579 39,000  Level Los Angeles Center
Sat 10:56:37 AM 35.5458 -112.7019 58° Northeast 494 568 39,000  Level Los Angeles Center
Sat 10:57:39 AM 35.6178 -112.5864 53° Northeast 494 568 39,000  Level Los Angeles Center
Sat 10:58:40 AM 35.7003 -112.4503 53° Northeast 498 573 39,000  Level Los Angeles Center
Sat 10:59:42 AM 35.7986 -112.2883 53° Northeast 496 571 39,000  Level Los Angeles Center
Sat 11:00:44 AM 35.8800 -112.1536 53° Northeast 494 568 39,000  Level Los Angeles Center
Sat 11:01:45 AM 35.9608 -112.0186 53° Northeast 493 567 39,000  Level Los Angeles Center
Sat 11:02:47 AM 36.0381 -111.8900 53° Northeast 495 570 39,000  Level Los Angeles Center
Sat 11:03:49 AM 36.1353 -111.7275 53° Northeast 493 567 39,000  Level Los Angeles Center
Sat 11:04:50 AM 36.2156 -111.5917 54° Northeast 490 564 39,000  Level Los Angeles Center
Sat 11:05:47 AM 36.2800 -111.4842 53° Northeast 491 565 39,000  Level Denver Center
Sat 11:06:50 AM 36.3778 -111.3183 54° Northeast 497 572 39,000  Level Denver Center
Sat 11:07:52 AM 36.4586 -111.1806 54° Northeast 496 571 39,000  Level Denver Center
Sat 11:08:54 AM 36.5389 -111.0428 54° Northeast 495 570 39,000  Level Denver Center
Sat 11:09:56 AM 36.6206 -110.9042 54° Northeast 496 571 39,000  Level Denver Center
Sat 11:10:58 AM 36.7006 -110.7675 54° Northeast 494 568 39,000  Level Denver Center
Sat 11:12:00 AM 36.7947 -110.6025 54° Northeast 492 566 39,000  Level Denver Center
Sat 11:13:02 AM 36.8736 -110.4644 54° Northeast 492 566 39,000  Level Denver Center
Sat 11:14:04 AM 36.9536 -110.3267 54° Northeast 492 566 39,000  Level Denver Center
Sat 11:15:06 AM 37.0319 -110.1864 55° Northeast 493 567 39,000  Level Denver Center
Sat 11:16:08 AM 37.1067 -110.0561 54° Northeast 498 573 39,000  Level Denver Center
Sat 11:17:10 AM 37.1964 -109.8972 55° Northeast 498 573 39,000  Level Denver Center
Sat 11:18:12 AM 37.2850 -109.7394 55° Northeast 495 570 39,000  Level Denver Center
Sat 11:19:14 AM 37.3614 -109.6047 54° Northeast 494 568 39,000  Level Denver Center
Sat 11:20:16 AM 37.4494 -109.4458 55° Northeast 496 571 39,000  Level Denver Center
Sat 11:21:18 AM 37.5261 -109.3081 55° Northeast 501 577 39,000  Level Denver Center
Sat 11:22:32 AM 37.6156 -109.1467 55° Northeast 502 578 39,000  Level Denver Center
Sat 11:23:35 AM 37.7164 -108.9631 55° Northeast 497 572 39,000  Level Denver Center
Sat 11:24:37 AM 37.7917 -108.8233 56° Northeast 501 577 39,000 48 Level Denver Center
Sat 11:25:39 AM 37.8633 -108.6836 57° Northeast 496 571 39,100  Climbing Denver Center
Sat 11:26:41 AM 37.9447 -108.5194 58° Northeast 494 568 39,000 -48 Descending Denver Center
Sat 11:27:43 AM 38.0156 -108.3797 57° Northeast 491 565 39,000  Level Denver Center
Sat 11:28:44 AM 38.0794 -108.2486 58° Northeast 493 567 39,000  Level Denver Center
Sat 11:29:47 AM 38.1725 -108.0614 58° Northeast 491 565 39,000  Level Denver Center
Sat 11:30:49 AM 38.2414 -107.9206 58° Northeast 489 563 39,000  Level Denver Center
Sat 11:31:51 AM 38.3214 -107.7578 58° Northeast 487 560 39,000  Level Denver Center
Sat 11:32:53 AM 38.3906 -107.6169 58° Northeast 489 563 39,000  Level Denver Center
Sat 11:33:55 AM 38.4700 -107.4528 58° Northeast 489 563 39,000  Level Denver Center
Sat 11:34:57 AM 38.5369 -107.3119 59° Northeast 487 560 39,000  Level Denver Center
Sat 11:35:59 AM 38.6025 -107.1756 58° Northeast 489 563 39,000 -194 Level Denver Center
Sat 11:37:01 AM 38.6886 -106.9969 58° Northeast 493 567 38,600 -1,065 Descending Denver Center
Sat 11:38:03 AM 38.7600 -106.8489 58° Northeast 492 566 36,800 -1,935 Descending Denver Center
Sat 11:39:05 AM 38.8164 -106.7278 59° Northeast 496 571 34,600 -2,806 Descending Denver Center
Sat 11:40:07 AM 38.9119 -106.5253 59° Northeast 494 568 31,000 -2,710 Descending Denver Center
Sat 11:41:09 AM 38.9794 -106.3833 59° Northeast 488 562 29,000 -1,920 Descending Denver Center
Sat 11:42:12 AM 39.0436 -106.2456 59° Northeast 473 544 27,000 -1,935 Descending Denver Center
Sat 11:43:13 AM 39.1058 -106.1086 60° Northeast 458 527 25,000 -1,897 Descending Denver Center
Sat 11:44:28 AM 39.1814 -105.9478 59° Northeast 440 506 22,700 -2,015 Descending Denver Center
Sat 11:45:30 AM 39.2531 -105.7917 59° Northeast 425 489 20,400 -1,935 Descending Denver Center
Sat 11:46:32 AM 39.3106 -105.6667 59° Northeast 410 472 18,700 -1,306 Descending Denver Center
Sat 11:47:34 AM 39.3656 -105.5453 60° Northeast 396 456 17,700 -1,016 Descending Denver Center
Sat 11:48:36 AM 39.3981 -105.4094 73° East 360 414 16,600 -1,113 Descending Denver Center
Sat 11:49:38 AM 39.4042 -105.2881 86° East 344 396 15,400 -1,210 Descending Denver Center
Sat 11:50:40 AM 39.4100 -105.1611 87° East 334 384 14,100 -1,065 Descending Denver Center
Sat 11:51:42 AM 39.4153 -105.0425 87° East 332 382 13,200 -823 Descending Denver Center
Sat 11:52:44 AM 39.4294 -104.9136 82° East 339 390 12,400 -871 Descending Denver Center
Sat 11:53:46 AM 39.4994 -104.8419 38° Northeast 333 383 11,400 -871 Descending Denver Center
Sat 11:54:48 AM 39.5778 -104.7997 23° Northeast 304 350 10,600 -701 Descending Denver Center
Sat 11:56:03 AM 39.6619 -104.7531 23° Northeast 249 287 9,800 -788 Descending Denver Center
Sat 11:57:05 AM 39.7164 -104.7242 22° Northeast 211 243 8,800 -1,161 Descending Denver Center
Sat 11:58:07 AM 39.7678 -104.6958 23° Northeast 192 221 7,400 -1,210 Descending Denver Center
Sat 11:59:09 AM 39.8186 -104.6878 North 184 212 6,300 -919 Descending Denver Center
Sat 12:00:11 PM 39.8603 -104.6878 360° North 144 166 5,500 -774 Descending Denver Center
Sat 12:02:00 PM 39.8617 -104.6732 83° East  Level Estimated
Sat 12:09:00 PM 39.8617 -104.6732 142° Southeast  Level Estimated
Sat 12:10:00 PM 39.8617 -104.6732 142° Southeast  Level Estimated
Sat 12:11:00 PM 39.8617 -104.6732 142° Southeast  Level Estimated

Login

Don't have an account? Register now (free) for customized features, flight alerts, and more!